Time;durP1;ratioP1;P1;durP2;ratioP2;P2;SDS_P1;SDS_P2;PMS_P1;PMS_P2;Temp;Humidity;BMP_temperature;BMP_pressure;BME280_temperature;BME280_humidity;BME280_pressure;Samples;Min_cycle;Max_cycle;Signal;HPM_P1;HPM_P2
2021/05/19 00:01:42;;;;;;;28.23;22.10;;;9.10;99.90;;;;;;5109345;27;20935;-72
2021/05/19 00:04:08;;;;;;;30.40;23.20;;;9.10;99.90;;;;;;5102210;27;20502;-72
2021/05/19 00:06:34;;;;;;;30.43;23.93;;;9.10;99.90;;;;;;5092526;27;21536;-72
2021/05/19 00:09:01;;;;;;;30.97;25.80;;;9.00;66.60;;;;;;5104311;27;20482;-72
2021/05/19 00:11:26;;;;;;;28.37;23.47;;;9.00;95.70;;;;;;5112145;27;20514;-72
2021/05/19 00:13:52;;;;;;;26.90;23.47;;;9.10;99.90;;;;;;5114415;27;21010;-73
2021/05/19 00:16:19;;;;;;;27.90;23.93;;;9.10;99.90;;;;;;5090922;27;20546;-72
2021/05/19 00:18:44;;;;;;;31.60;25.20;;;9.10;99.90;;;;;;5091966;27;20474;-72
2021/05/19 00:21:11;;;;;;;31.70;25.67;;;9.00;99.90;;;;;;5109290;27;20452;-73
2021/05/19 00:23:37;;;;;;;31.83;25.90;;;9.00;99.90;;;;;;5116933;27;20751;-72
2021/05/19 00:26:04;;;;;;;32.80;25.97;;;8.80;99.90;;;;;;5112900;27;20443;-72
2021/05/19 00:28:31;;;;;;;35.00;26.57;;;8.60;99.90;;;;;;5107636;27;20498;-71
2021/05/19 00:30:57;;;;;;;38.80;30.00;;;8.50;99.90;;;;;;5108385;27;20444;-72
2021/05/19 00:33:24;;;;;;;36.87;28.50;;;8.40;99.90;;;;;;5107208;27;20489;-72
2021/05/19 00:35:50;;;;;;;38.77;28.23;;;8.40;99.90;;;;;;5112533;27;20462;-73
2021/05/19 00:38:17;;;;;;;33.27;26.13;;;8.30;99.90;;;;;;5121093;27;20450;-72
2021/05/19 00:40:43;;;;;;;33.70;27.00;;;8.30;1.00;;;;;;5099192;27;20852;-73
2021/05/19 00:43:08;;;;;;;37.03;28.83;;;8.40;1.00;;;;;;5105771;27;20436;-72
2021/05/19 00:45:34;;;;;;;35.40;28.03;;;8.40;1.00;;;;;;5115951;27;20201;-72
2021/05/19 00:48:01;;;;;;;36.20;28.43;;;8.40;43.40;;;;;;5087936;27;20284;-72
2021/05/19 00:50:29;;;;;;;37.23;27.10;;;8.50;1.00;;;;;;5110819;27;20439;-72
2021/05/19 00:52:55;;;;;;;37.77;28.90;;;8.60;1.00;;;;;;5109998;27;20640;-71
2021/05/19 00:55:21;;;;;;;37.90;29.93;;;8.60;1.00;;;;;;5108706;27;20431;-72
2021/05/19 00:57:50;;;;;;;41.60;29.93;;;8.60;1.00;;;;;;5115109;27;20450;-72
2021/05/19 01:00:17;;;;;;;39.27;29.47;;;8.70;1.00;;;;;;5095454;27;20443;-71
2021/05/19 01:02:53;;;;;;;37.47;28.10;;;8.80;1.00;;;;;;5085571;27;20800;-72
2021/05/19 01:05:46;;;;;;;41.43;32.23;;;8.70;99.90;;;;;;5077605;27;20469;-72
2021/05/19 01:11:05;;;;;;;31.60;24.00;;;8.60;99.90;;;;;;5109228;27;20438;-72
2021/05/19 01:13:31;;;;;;;35.43;25.80;;;8.50;99.90;;;;;;5107030;27;20464;-72
2021/05/19 01:15:58;;;;;;;32.40;24.67;;;8.40;99.90;;;;;;5103251;27;20553;-72
2021/05/19 01:18:26;;;;;;;33.20;27.27;;;8.40;1.00;;;;;;5105350;27;20202;-72
2021/05/19 01:20:56;;;;;;;38.10;28.53;;;8.50;1.00;;;;;;5085324;27;20438;-72
2021/05/19 01:23:21;;;;;;;39.60;28.80;;;8.60;1.00;;;;;;5089069;27;20921;-72
2021/05/19 01:25:47;;;;;;;44.70;31.90;;;8.60;1.00;;;;;;5102596;27;20468;-71
2021/05/19 01:28:13;;;;;;;45.17;31.63;;;8.60;1.00;;;;;;5105425;27;20208;-72
2021/05/19 01:30:40;;;;;;;41.60;29.70;;;8.60;1.00;;;;;;5106817;27;21501;-72
2021/05/19 01:33:06;;;;;;;37.13;29.90;;;8.60;1.00;;;;;;5103953;27;20514;-72
2021/05/19 01:35:33;;;;;;;43.00;31.37;;;8.70;1.00;;;;;;5091115;27;20458;-72
2021/05/19 01:38:00;;;;;;;43.60;32.70;;;8.70;1.00;;;;;;5095160;27;20438;-72
2021/05/19 01:40:27;;;;;;;47.23;33.30;;;8.70;1.00;;;;;;5091284;27;20446;-73
2021/05/19 01:42:54;;;;;;;41.23;31.37;;;8.80;1.00;;;;;;5086016;27;20469;-73
2021/05/19 01:45:39;;;;;;;48.23;32.03;;;8.80;99.90;;;;;;5088446;27;20494;-73
2021/05/19 01:48:07;;;;;;;42.77;32.20;;;8.80;1.00;;;;;;5106544;27;20870;-73
2021/05/19 01:50:34;;;;;;;44.87;32.40;;;8.80;99.90;;;;;;5104481;27;20249;-72
2021/05/19 01:53:03;;;;;;;46.27;34.10;;;8.80;99.90;;;;;;5103488;27;20508;-73
2021/05/19 01:55:29;;;;;;;48.10;34.20;;;8.70;99.90;;;;;;5102430;27;20442;-72
2021/05/19 01:57:56;;;;;;;47.37;33.00;;;8.80;99.90;;;;;;5078071;27;20940;-73
2021/05/19 02:00:27;;;;;;;47.50;34.07;;;8.70;99.90;;;;;;5111321;27;20442;-73
2021/05/19 02:03:00;;;;;;;41.23;31.70;;;8.70;99.90;;;;;;5090912;27;20449;-72
2021/05/19 02:05:28;;;;;;;40.83;29.37;;;8.70;99.90;;;;;;5104738;27;20457;-72
2021/05/19 02:07:55;;;;;;;41.10;29.07;;;8.70;99.90;;;;;;5085454;27;20503;-73
2021/05/19 02:10:24;;;;;;;41.17;31.63;;;8.70;99.90;;;;;;5084508;27;21022;-72
2021/05/19 02:12:51;;;;;;;41.60;30.50;;;8.70;99.90;;;;;;5079234;28;20449;-73
2021/05/19 02:15:19;;;;;;;42.83;31.83;;;8.70;99.90;;;;;;5110225;27;20443;-73
2021/05/19 02:17:48;;;;;;;41.67;31.40;;;8.60;99.90;;;;;;5081648;27;20433;-72
2021/05/19 02:20:17;;;;;;;39.93;30.37;;;8.50;99.90;;;;;;5083370;27;20451;-72
2021/05/19 02:22:44;;;;;;;35.80;27.00;;;8.40;99.90;;;;;;5092328;27;20454;-72
2021/05/19 02:25:11;;;;;;;40.40;30.10;;;8.40;99.90;;;;;;5112439;27;20430;-72
2021/05/19 02:27:37;;;;;;;40.43;31.50;;;8.40;99.90;;;;;;5105376;27;20471;-73
2021/05/19 02:30:09;;;;;;;40.47;31.13;;;8.40;99.90;;;;;;5109571;27;20465;-72
2021/05/19 02:32:36;;;;;;;43.53;30.70;;;8.60;99.90;;;;;;5085331;27;20443;-72
2021/05/19 02:35:03;;;;;;;42.03;30.77;;;8.60;99.90;;;;;;5103440;27;20453;-73
2021/05/19 02:37:29;;;;;;;47.13;34.10;;;8.60;99.90;;;;;;5089688;27;20452;-72
2021/05/19 02:39:55;;;;;;;44.63;31.37;;;8.60;99.90;;;;;;5085947;27;22203;-73
2021/05/19 02:42:21;;;;;;;48.23;34.80;;;8.60;99.90;;;;;;5105208;27;21956;-73
2021/05/19 02:44:48;;;;;;;43.70;31.60;;;8.60;99.90;;;;;;5107371;27;20440;-73
2021/05/19 02:47:14;;;;;;;51.13;34.50;;;8.60;99.90;;;;;;5105454;27;20469;-72
2021/05/19 02:49:40;;;;;;;44.90;32.77;;;8.50;99.90;;;;;;5090819;27;20214;-72
2021/05/19 02:52:06;;;;;;;48.33;33.10;;;8.50;99.90;;;;;;5110699;27;20540;-73
2021/05/19 02:54:32;;;;;;;45.83;34.07;;;8.50;1.00;;;;;;5107161;27;20356;-73
2021/05/19 02:56:58;;;;;;;43.73;31.67;;;8.60;99.90;;;;;;5106631;27;20439;-73
2021/05/19 02:59:27;;;;;;;44.50;32.17;;;8.60;99.90;;;;;;5104421;27;20531;-71
2021/05/19 03:01:59;;;;;;;44.87;33.33;;;8.60;99.90;;;;;;5100373;27;20252;-72
2021/05/19 03:04:25;;;;;;;39.50;29.43;;;8.70;99.90;;;;;;5095733;27;20480;-72
2021/05/19 03:06:51;;;;;;;41.13;30.27;;;8.70;99.90;;;;;;5103350;27;21372;-72
2021/05/19 03:09:17;;;;;;;38.90;29.80;;;8.60;99.90;;;;;;5079080;27;20448;-72
2021/05/19 03:11:43;;;;;;;40.67;31.70;;;8.50;99.90;;;;;;5101843;27;20177;-73
2021/05/19 03:14:09;;;;;;;39.77;28.97;;;8.30;99.90;;;;;;5106717;27;21227;-73
2021/05/19 03:16:37;;;;;;;35.07;26.20;;;8.30;99.90;;;;;;5086449;27;20438;-72
2021/05/19 03:19:06;;;;;;;37.97;26.73;;;8.10;99.90;;;;;;5105891;27;20201;-72
2021/05/19 03:21:32;;;;;;;40.60;28.87;;;7.90;99.90;;;;;;5086573;27;20972;-72
2021/05/19 03:23:59;;;;;;;40.30;27.10;;;7.90;99.90;;;;;;5079132;27;20468;-72
2021/05/19 03:26:24;;;;;;;38.37;27.60;;;8.00;99.90;;;;;;5082654;27;20458;-72
2021/05/19 03:28:50;;;;;;;42.17;31.00;;;8.00;99.90;;;;;;5088046;27;20624;-72
2021/05/19 03:31:16;;;;;;;42.17;30.47;;;8.00;99.90;;;;;;5100079;27;20206;-72
2021/05/19 03:33:42;;;;;;;45.77;30.10;;;8.10;99.90;;;;;;5115852;27;20451;-72
2021/05/19 03:36:08;;;;;;;40.13;31.17;;;8.10;1.00;;;;;;5112592;27;20820;-72
2021/05/19 03:38:38;;;;;;;42.00;29.47;;;8.20;1.00;;;;;;5113539;27;20437;-72
2021/05/19 03:41:05;;;;;;;38.50;29.73;;;8.10;1.00;;;;;;5102966;27;20683;-72
2021/05/19 03:43:32;;;;;;;43.93;29.23;;;8.20;99.90;;;;;;5114866;27;21857;-73
2021/05/19 03:45:59;;;;;;;36.87;27.50;;;8.20;99.90;;;;;;5102584;27;20718;-72
2021/05/19 03:48:25;;;;;;;38.73;28.13;;;8.10;99.90;;;;;;5113849;27;20925;-72
2021/05/19 03:50:51;;;;;;;40.10;29.47;;;8.20;99.90;;;;;;5105303;27;20464;-72
2021/05/19 03:53:17;;;;;;;38.70;28.67;;;8.20;99.90;;;;;;5101656;27;20189;-72
2021/05/19 03:55:43;;;;;;;41.07;29.80;;;8.10;99.90;;;;;;5102851;27;20626;-72
2021/05/19 03:58:10;;;;;;;41.27;29.10;;;8.00;99.90;;;;;;5103290;27;20450;-72
2021/05/19 04:00:38;;;;;;;36.80;27.10;;;8.10;1.00;;;;;;5106550;27;20500;-73
2021/05/19 04:03:04;;;;;;;37.00;27.67;;;8.00;1.00;;;;;;5107349;27;20449;-72
2021/05/19 04:05:34;;;;;;;38.07;27.60;;;8.00;1.00;;;;;;5105035;27;20454;-72
2021/05/19 04:08:11;;;;;;;39.00;29.60;;;8.00;1.00;;;;;;5079435;27;21030;-73
2021/05/19 04:10:38;;;;;;;38.10;27.33;;;8.00;99.90;;;;;;5110308;27;21009;-72
2021/05/19 04:13:05;;;;;;;35.87;27.23;;;8.10;99.90;;;;;;5107471;27;20552;-72
2021/05/19 04:15:32;;;;;;;38.87;27.90;;;8.10;99.90;;;;;;5110807;27;20508;-72
2021/05/19 04:17:58;;;;;;;44.00;25.27;;;8.30;99.90;;;;;;5103493;27;20571;-73
2021/05/19 04:20:24;;;;;;;36.27;26.87;;;8.30;99.90;;;;;;5102361;27;20469;-73
2021/05/19 04:22:50;;;;;;;35.33;25.47;;;8.30;99.90;;;;;;5104075;27;20273;-72
2021/05/19 04:25:16;;;;;;;38.73;27.60;;;8.30;99.90;;;;;;5106275;27;21151;-72
2021/05/19 04:27:42;;;;;;;35.00;25.70;;;8.30;99.90;;;;;;5103920;27;20208;-72
2021/05/19 04:30:09;;;;;;;39.60;26.80;;;8.30;99.90;;;;;;5102699;27;20435;-72
2021/05/19 04:32:36;;;;;;;32.20;24.70;;;8.30;99.90;;;;;;5110963;27;20885;-72
2021/05/19 04:35:04;;;;;;;37.43;27.40;;;8.30;99.90;;;;;;5093068;27;20450;-72
2021/05/19 04:37:30;;;;;;;34.50;26.10;;;8.30;99.90;;;;;;5110159;27;20441;-72
2021/05/19 04:39:56;;;;;;;34.50;22.50;;;8.30;99.90;;;;;;5120442;27;20434;-73
2021/05/19 04:42:21;;;;;;;31.10;23.93;;;8.40;99.90;;;;;;5108162;27;20449;-73
2021/05/19 04:44:47;;;;;;;30.87;23.47;;;8.50;99.90;;;;;;5099697;27;20201;-72
2021/05/19 04:47:13;;;;;;;30.90;24.77;;;8.60;99.90;;;;;;5094735;27;20294;-73
2021/05/19 04:49:38;;;;;;;29.00;22.93;;;8.60;79.40;;;;;;5091889;27;20360;-73
2021/05/19 04:52:04;;;;;;;31.13;23.97;;;8.60;99.90;;;;;;5119756;27;20306;-73
2021/05/19 04:54:30;;;;;;;33.30;23.40;;;8.70;99.90;;;;;;5118764;27;20282;-72
2021/05/19 04:56:56;;;;;;;30.10;22.10;;;8.70;99.90;;;;;;5107022;27;20764;-73
2021/05/19 04:59:22;;;;;;;31.80;22.70;;;8.70;99.90;;;;;;5121826;27;20438;-73
2021/05/19 05:01:47;;;;;;;26.40;22.23;;;8.80;99.90;;;;;;5121249;27;20268;-73
2021/05/19 05:04:13;;;;;;;30.30;22.33;;;8.80;99.90;;;;;;5117543;27;20200;-72
2021/05/19 05:06:39;;;;;;;31.87;22.70;;;8.80;99.90;;;;;;5115401;27;20320;-73
2021/05/19 05:09:05;;;;;;;30.60;20.50;;;8.90;99.90;;;;;;5120006;27;20189;-73
2021/05/19 05:11:30;;;;;;;27.90;22.83;;;9.00;99.90;;;;;;5094689;27;20193;-73
2021/05/19 05:13:56;;;;;;;32.90;25.00;;;9.00;99.90;;;;;;5097565;27;21008;-72
2021/05/19 05:16:22;;;;;;;27.40;21.33;;;9.10;99.90;;;;;;5107905;27;20192;-73
2021/05/19 05:18:47;;;;;;;30.20;23.70;;;9.20;99.90;;;;;;5115772;27;20190;-73
2021/05/19 05:21:13;;;;;;;30.27;21.80;;;9.30;99.90;;;;;;5112886;27;20246;-73
2021/05/19 05:23:39;;;;;;;28.10;20.57;;;9.30;99.90;;;;;;5117895;27;20563;-73
2021/05/19 05:26:04;;;;;;;28.03;20.80;;;9.30;99.90;;;;;;5110869;27;20180;-72
2021/05/19 05:28:31;;;;;;;32.53;18.30;;;9.40;99.90;;;;;;5116859;27;20207;-73
2021/05/19 05:30:57;;;;;;;26.83;18.80;;;9.40;99.90;;;;;;5106470;27;20479;-73
2021/05/19 05:33:23;;;;;;;26.27;18.90;;;9.40;99.90;;;;;;5111290;27;21151;-73
2021/05/19 05:35:50;;;;;;;20.83;18.63;;;9.40;99.90;;;;;;5116833;27;20734;-73
2021/05/19 05:38:16;;;;;;;22.60;17.90;;;9.40;99.90;;;;;;5115063;27;20451;-73
2021/05/19 05:40:42;;;;;;;22.53;18.33;;;9.40;99.90;;;;;;5113039;27;20454;-73
2021/05/19 05:43:07;;;;;;;20.33;17.43;;;9.40;1.00;;;;;;5114318;27;20213;-73
2021/05/19 05:45:33;;;;;;;22.13;18.50;;;9.30;1.00;;;;;;5117917;27;20185;-73
2021/05/19 05:47:59;;;;;;;20.13;17.70;;;9.20;1.00;;;;;;5118857;27;20257;-73
2021/05/19 05:50:25;;;;;;;25.37;18.73;;;9.30;1.00;;;;;;5125217;27;20618;-73
2021/05/19 05:52:52;;;;;;;22.00;18.17;;;9.30;99.60;;;;;;5109237;27;20190;-73
2021/05/19 05:55:20;;;;;;;21.53;18.80;;;9.40;51.60;;;;;;5111701;27;20443;-73
2021/05/19 05:57:49;;;;;;;25.63;17.90;;;9.40;99.90;;;;;;5121086;27;20443;-73
2021/05/19 06:00:15;;;;;;;26.63;19.10;;;9.60;99.90;;;;;;5105440;27;20439;-73
2021/05/19 06:02:42;;;;;;;23.90;20.10;;;9.80;99.90;;;;;;5121994;27;20421;-74
2021/05/19 06:05:09;;;;;;;21.40;18.00;;;10.00;99.90;;;;;;5116339;27;20947;-74
2021/05/19 06:07:34;;;;;;;20.03;17.67;;;10.10;99.90;;;;;;5122846;27;20460;-74
2021/05/19 06:10:00;;;;;;;23.33;16.80;;;10.10;1.00;;;;;;5115147;27;20443;-74
2021/05/19 06:12:26;;;;;;;22.10;15.80;;;10.10;99.90;;;;;;5125156;27;20173;-74
2021/05/19 06:14:51;;;;;;;17.83;15.10;;;10.10;99.90;;;;;;5123808;27;20635;-75
2021/05/19 06:17:17;;;;;;;21.90;15.30;;;10.00;99.90;;;;;;5119794;27;20181;-74
2021/05/19 06:19:43;;;;;;;20.53;15.63;;;10.10;99.90;;;;;;5117997;27;20201;-73
2021/05/19 06:22:09;;;;;;;22.20;16.17;;;10.10;99.90;;;;;;5122421;27;21015;-71
2021/05/19 06:24:35;;;;;;;20.80;15.10;;;10.20;1.00;;;;;;5110654;27;20196;-71
2021/05/19 06:27:01;;;;;;;22.37;14.57;;;10.20;99.90;;;;;;5124270;27;20474;-71
2021/05/19 06:29:27;;;;;;;18.77;14.70;;;10.40;99.90;;;;;;5118936;27;20485;-72
2021/05/19 06:31:53;;;;;;;23.57;13.90;;;10.50;99.90;;;;;;5120995;27;20639;-72
2021/05/19 06:34:18;;;;;;;20.63;12.17;;;10.60;99.90;;;;;;5102797;27;20299;-72
2021/05/19 06:36:46;;;;;;;17.33;12.23;;;10.70;99.90;;;;;;5116622;27;20275;-73
2021/05/19 06:39:13;;;;;;;17.60;12.37;;;10.80;99.90;;;;;;5121689;27;20603;-72
2021/05/19 06:41:42;;;;;;;18.20;12.20;;;10.90;99.90;;;;;;5120063;27;20463;-72
2021/05/19 06:44:09;;;;;;;13.97;10.20;;;10.70;53.00;;;;;;5110096;27;20480;-72
2021/05/19 06:46:35;;;;;;;13.47;10.00;;;10.70;48.20;;;;;;5092179;27;20471;-72
2021/05/19 06:49:03;;;;;;;12.90;11.00;;;10.70;35.60;;;;;;5104065;27;20451;-72
2021/05/19 06:51:30;;;;;;;13.43;10.10;;;10.80;98.40;;;;;;5106390;27;20491;-72
2021/05/19 06:53:56;;;;;;;14.43;9.43;;;10.70;19.20;;;;;;5106827;27;20439;-72
2021/05/19 06:56:22;;;;;;;15.90;9.73;;;10.70;27.90;;;;;;5109757;27;20461;-72
2021/05/19 06:58:48;;;;;;;13.60;11.20;;;10.70;24.80;;;;;;5112721;27;21505;-72
2021/05/19 07:01:14;;;;;;;15.17;10.97;;;10.70;22.90;;;;;;5109692;27;20230;-72
2021/05/19 07:03:39;;;;;;;14.70;9.30;;;10.70;19.80;;;;;;5109174;27;20189;-72
2021/05/19 07:06:05;;;;;;;18.53;10.73;;;10.70;90.40;;;;;;5113470;27;20201;-72
2021/05/19 07:08:31;;;;;;;17.90;11.17;;;10.80;54.80;;;;;;5107507;27;20241;-72
2021/05/19 07:10:57;;;;;;;15.73;10.90;;;10.90;92.70;;;;;;5095599;27;20203;-72
2021/05/19 07:13:27;;;;;;;17.87;12.60;;;11.10;99.90;;;;;;5108908;27;20317;-73
2021/05/19 07:15:53;;;;;;;18.13;11.37;;;11.10;94.00;;;;;;5103450;27;20195;-72
2021/05/19 07:18:21;;;;;;;15.37;10.97;;;11.10;45.80;;;;;;5107514;27;20438;-72
2021/05/19 07:20:47;;;;;;;12.37;8.90;;;11.10;7.00;;;;;;5109484;27;20459;-72
2021/05/19 07:23:13;;;;;;;10.60;7.60;;;11.10;6.80;;;;;;5112539;27;20573;-72
2021/05/19 07:25:39;;;;;;;10.13;8.30;;;11.10;1.00;;;;;;5119952;27;20541;-72
2021/05/19 07:28:05;;;;;;;12.57;7.83;;;11.30;1.00;;;;;;5114432;27;20615;-71
2021/05/19 07:30:31;;;;;;;13.30;8.20;;;11.50;1.00;;;;;;5100058;27;20438;-72
2021/05/19 07:32:57;;;;;;;12.23;7.70;;;11.60;1.00;;;;;;5110299;27;20441;-72
2021/05/19 07:35:23;;;;;;;12.00;7.97;;;11.60;1.00;;;;;;5102270;27;20483;-72
2021/05/19 07:37:49;;;;;;;13.73;8.30;;;11.70;1.00;;;;;;5103264;27;20187;-72
2021/05/19 07:40:15;;;;;;;19.67;9.63;;;11.80;1.00;;;;;;5097186;27;20180;-72
2021/05/19 07:42:41;;;;;;;11.23;7.33;;;11.90;1.00;;;;;;5102084;27;20450;-72
2021/05/19 07:45:08;;;;;;;8.93;6.20;;;12.10;1.00;;;;;;5101067;27;24392;-73
2021/05/19 07:47:34;;;;;;;11.10;6.60;;;12.20;1.00;;;;;;5080476;27;21183;-73
2021/05/19 07:50:00;;;;;;;13.30;5.93;;;12.30;1.00;;;;;;5103325;27;20458;-73
2021/05/19 07:52:25;;;;;;;11.07;7.00;;;12.20;1.00;;;;;;5101892;27;20176;-73
2021/05/19 07:54:51;;;;;;;12.80;6.73;;;12.30;1.00;;;;;;5101798;27;20807;-73
2021/05/19 07:57:22;;;;;;;9.40;6.80;;;12.30;1.00;;;;;;5100313;27;20191;-73
2021/05/19 07:59:56;;;;;;;9.00;5.47;;;12.40;1.00;;;;;;5098776;27;20748;-73
2021/05/19 08:02:22;;;;;;;9.77;6.10;;;12.40;1.00;;;;;;5100700;27;21071;-72
2021/05/19 08:04:52;;;;;;;12.37;5.33;;;12.40;1.00;;;;;;5102187;27;20454;-72
2021/05/19 08:07:18;;;;;;;7.33;5.17;;;12.40;1.00;;;;;;5100201;27;20192;-72
2021/05/19 08:09:44;;;;;;;9.57;5.40;;;12.40;1.00;;;;;;5104040;27;21068;-72
2021/05/19 08:12:10;;;;;;;6.37;4.87;;;12.40;1.00;;;;;;5099944;27;20188;-72
2021/05/19 08:15:05;;;;;;;8.13;4.23;;;12.50;1.00;;;;;;5100639;27;20185;-73
2021/05/19 08:17:34;;;;;;;6.80;4.90;;;12.40;1.00;;;;;;5096523;27;20458;-74
2021/05/19 08:20:00;;;;;;;7.10;5.17;;;12.30;1.00;;;;;;5102375;27;20803;-73
2021/05/19 08:22:26;;;;;;;7.30;6.20;;;12.30;1.00;;;;;;5098684;27;20475;-73
2021/05/19 08:24:52;;;;;;;6.87;5.00;;;12.50;1.00;;;;;;5105602;27;20248;-73
2021/05/19 08:27:17;;;;;;;6.97;5.40;;;12.30;1.00;;;;;;5107984;27;20464;-72
2021/05/19 08:29:43;;;;;;;8.40;5.17;;;12.30;1.00;;;;;;5111529;27;20434;-72
2021/05/19 08:32:09;;;;;;;11.93;4.60;;;12.40;1.00;;;;;;5110573;27;20576;-72
2021/05/19 08:34:37;;;;;;;6.10;4.80;;;12.40;1.00;;;;;;5113551;27;20183;-72
2021/05/19 08:37:03;;;;;;;12.13;4.93;;;12.40;1.00;;;;;;5112817;27;21099;-72
2021/05/19 08:39:29;;;;;;;10.53;5.80;;;12.50;1.00;;;;;;5116646;27;20503;-73
2021/05/19 08:41:55;;;;;;;10.00;6.00;;;12.60;1.00;;;;;;5102227;27;20208;-74
2021/05/19 08:44:23;;;;;;;7.30;5.20;;;12.70;1.00;;;;;;5112968;27;20451;-73
2021/05/19 08:46:56;;;;;;;13.97;7.00;;;12.80;1.00;;;;;;5107673;27;21061;-72
2021/05/19 08:49:23;;;;;;;7.93;5.87;;;12.80;1.00;;;;;;5110633;27;20530;-72
2021/05/19 08:51:49;;;;;;;11.83;5.53;;;12.90;1.00;;;;;;5108557;27;20465;-71
2021/05/19 08:54:17;;;;;;;8.57;5.73;;;13.00;1.00;;;;;;5097685;27;20443;-73
2021/05/19 08:56:45;;;;;;;6.83;5.50;;;13.00;1.00;;;;;;5109727;27;21209;-72
2021/05/19 08:59:12;;;;;;;8.37;5.40;;;13.10;1.00;;;;;;5111688;27;20446;-72
2021/05/19 09:01:44;;;;;;;11.50;4.63;;;12.80;1.00;;;;;;5106082;27;20457;-72
2021/05/19 09:04:28;;;;;;;7.50;5.23;;;12.80;1.00;;;;;;5111654;27;21084;-73
2021/05/19 09:06:55;;;;;;;9.00;5.73;;;12.90;1.00;;;;;;5093914;27;20972;-73
2021/05/19 09:09:26;;;;;;;8.90;5.17;;;13.00;1.00;;;;;;5106677;27;20445;-73
2021/05/19 09:12:15;;;;;;;8.27;5.20;;;13.00;1.00;;;;;;5102015;27;20441;-73
2021/05/19 09:14:50;;;;;;;8.03;5.37;;;13.00;1.00;;;;;;5092376;27;20492;-72
2021/05/19 09:17:31;;;;;;;8.47;6.00;;;13.10;1.00;;;;;;5114348;27;20436;-72
2021/05/19 09:20:15;;;;;;;10.90;5.40;;;13.20;1.00;;;;;;5110815;27;20458;-73
2021/05/19 09:22:46;;;;;;;6.60;4.40;;;13.00;1.00;;;;;;5106416;27;20793;-72
2021/05/19 09:25:25;;;;;;;7.50;3.97;;;12.90;1.00;;;;;;5105385;27;20438;-74
2021/05/19 09:27:53;;;;;;;6.63;4.60;;;12.90;1.00;;;;;;5103811;27;20496;-72
2021/05/19 09:30:40;;;;;;;7.83;4.57;;;12.90;1.00;;;;;;5111496;27;20469;-72
2021/05/19 09:33:16;;;;;;;7.83;3.93;;;13.10;1.00;;;;;;5097178;27;20443;-73
2021/05/19 09:35:43;;;;;;;11.70;4.70;;;13.10;1.00;;;;;;5112675;27;20853;-72
2021/05/19 09:38:29;;;;;;;7.57;4.80;;;13.10;1.00;;;;;;5106095;27;20440;-73
2021/05/19 09:41:21;;;;;;;9.33;3.30;;;12.80;1.00;;;;;;5110674;27;20559;-72
2021/05/19 09:43:48;;;;;;;7.40;3.37;;;12.70;1.00;;;;;;5113508;27;20566;-72
2021/05/19 09:46:27;;;;;;;6.10;4.00;;;12.70;1.00;;;;;;5115429;27;20453;-73
2021/05/19 09:49:21;;;;;;;7.30;2.60;;;12.40;1.00;;;;;;5116808;27;20443;-72
2021/05/19 09:51:50;;;;;;;4.60;3.37;;;12.40;1.00;;;;;;5119016;27;20561;-72
2021/05/19 09:54:32;;;;;;;3.87;2.60;;;12.20;1.00;;;;;;5115318;27;20471;-73
2021/05/19 09:57:00;;;;;;;5.23;2.43;;;12.10;1.00;;;;;;5096133;27;20561;-73
2021/05/19 09:59:27;;;;;;;4.30;2.27;;;12.10;1.00;;;;;;5105809;27;20467;-74
2021/05/19 10:01:57;;;;;;;5.50;2.33;;;12.40;1.00;;;;;;5087515;27;20488;-74
2021/05/19 10:04:34;;;;;;;5.40;1.73;;;12.70;1.00;;;;;;5105478;27;20453;-71
2021/05/19 10:07:00;;;;;;;4.80;1.90;;;12.50;1.00;;;;;;5107453;27;20458;-73
2021/05/19 10:09:27;;;;;;;8.40;2.97;;;12.50;1.00;;;;;;5079536;27;20492;-72
2021/05/19 10:11:55;;;;;;;4.30;2.03;;;12.40;1.00;;;;;;5105242;27;20188;-73
2021/05/19 10:14:22;;;;;;;3.50;2.37;;;12.30;1.00;;;;;;5105619;27;20448;-72
2021/05/19 10:16:54;;;;;;;7.30;2.37;;;12.20;1.00;;;;;;5107585;27;20491;-72
2021/05/19 10:19:27;;;;;;;3.97;2.50;;;12.50;1.00;;;;;;5102021;27;20969;-72
2021/05/19 10:21:58;;;;;;;5.70;2.60;;;12.90;1.00;;;;;;5103487;27;21046;-72
2021/05/19 10:24:54;;;;;;;9.00;3.67;;;13.30;1.00;;;;;;5086419;27;20454;-73
2021/05/19 10:27:21;;;;;;;5.13;2.67;;;13.90;1.00;;;;;;5100164;27;20501;-73
2021/05/19 10:29:47;;;;;;;5.20;2.30;;;14.20;1.00;;;;;;5084759;28;20438;-73
2021/05/19 10:32:22;;;;;;;4.33;2.10;;;14.70;1.00;;;;;;5083577;27;23118;-73
2021/05/19 10:34:52;;;;;;;3.70;2.30;;;15.10;1.00;;;;;;5102884;27;20471;-72
2021/05/19 10:37:27;;;;;;;3.40;2.10;;;15.00;1.00;;;;;;5102528;27;20474;-73
2021/05/19 10:40:14;;;;;;;8.30;1.83;;;14.90;1.00;;;;;;5106278;27;20428;-73
2021/05/19 10:42:51;;;;;;;5.70;1.83;;;15.20;1.00;;;;;;5109729;27;20517;-73
2021/05/19 10:45:16;;;;;;;6.67;2.07;;;15.00;1.00;;;;;;5115799;27;20443;-73
2021/05/19 10:47:44;;;;;;;6.60;1.80;;;14.60;1.00;;;;;;5106189;27;20477;-73
2021/05/19 10:58:53;;;;;;;3.83;1.30;;;14.50;1.00;;;;;;5106211;27;20487;-73
2021/05/19 11:01:41;;;;;;;10.90;1.43;;;14.20;1.00;;;;;;5090225;27;20459;-72
2021/05/19 11:04:16;;;;;;;5.53;1.50;;;14.20;1.00;;;;;;5107184;27;20454;-72
2021/05/19 11:06:59;;;;;;;6.40;1.73;;;14.70;1.00;;;;;;5111484;27;20450;-72
2021/05/19 11:09:29;;;;;;;3.17;1.20;;;14.80;1.00;;;;;;5107483;27;21033;-72
2021/05/19 11:12:16;;;;;;;6.43;1.80;;;14.90;1.00;;;;;;5110183;27;20501;-72
2021/05/19 11:14:51;;;;;;;2.87;1.20;;;15.30;1.00;;;;;;5106164;27;20553;-74
2021/05/19 11:17:33;;;;;;;3.93;1.83;;;15.50;1.00;;;;;;5108055;27;20450;-74
2021/05/19 11:20:03;;;;;;;4.47;1.30;;;15.10;1.00;;;;;;5102886;27;20527;-73
2021/05/19 11:22:29;;;;;;;7.17;1.20;;;14.70;1.00;;;;;;5109105;27;20472;-73
2021/05/19 11:24:59;;;;;;;4.83;1.60;;;14.50;1.00;;;;;;5091404;27;20450;-73
2021/05/19 11:27:27;;;;;;;6.47;2.07;;;14.60;1.00;;;;;;5107639;27;20208;-73
2021/05/19 11:29:54;;;;;;;4.50;1.47;;;14.70;1.00;;;;;;5105799;27;20445;-73
2021/05/19 11:32:24;;;;;;;7.23;1.83;;;14.40;1.00;;;;;;5096333;27;20504;-72
2021/05/19 11:34:50;;;;;;;4.27;1.57;;;14.20;1.00;;;;;;5088581;27;20722;-72
2021/05/19 11:37:18;;;;;;;6.00;1.40;;;14.00;1.00;;;;;;5105481;27;20578;-73
2021/05/19 11:39:47;;;;;;;3.97;1.43;;;14.30;1.00;;;;;;5106291;27;20495;-73
2021/05/19 11:42:23;;;;;;;2.80;1.60;;;14.10;1.00;;;;;;5104650;27;21185;-72
2021/05/19 11:44:54;;;;;;;3.23;1.40;;;14.00;1.00;;;;;;5107326;27;20439;-72
2021/05/19 11:47:22;;;;;;;5.03;1.83;;;14.10;1.00;;;;;;5109057;27;20468;-72
2021/05/19 11:50:03;;;;;;;8.17;2.20;;;14.30;1.00;;;;;;5110590;27;23485;-72
2021/05/19 11:52:43;;;;;;;3.03;1.50;;;14.40;1.00;;;;;;5090044;27;20444;-73
2021/05/19 11:55:44;;;;;;;7.13;2.10;;;14.40;1.00;;;;;;5106214;27;20584;-73
2021/05/19 11:58:30;;;;;;;3.97;1.60;;;14.20;1.00;;;;;;5080566;27;20451;-73
2021/05/19 12:01:10;;;;;;;5.97;1.80;;;14.00;1.00;;;;;;5107451;27;20445;-73
2021/05/19 12:03:38;;;;;;;5.83;1.47;;;13.90;1.00;;;;;;5109959;27;20489;-72
2021/05/19 12:06:06;;;;;;;4.90;1.53;;;13.70;1.00;;;;;;5102982;27;20459;-74
2021/05/19 12:08:35;;;;;;;7.90;2.30;;;13.70;1.00;;;;;;5106461;27;20473;-73
2021/05/19 12:11:17;;;;;;;10.00;2.67;;;14.10;1.00;;;;;;5108465;27;20799;-73
2021/05/19 12:13:56;;;;;;;5.90;1.80;;;14.80;1.00;;;;;;5082556;27;20439;-73
2021/05/19 12:16:32;;;;;;;3.37;1.17;;;15.40;1.00;;;;;;5109930;27;20568;-72
2021/05/19 12:19:11;;;;;;;2.37;1.30;;;15.80;1.00;;;;;;5105451;27;20818;-73
2021/05/19 12:21:43;;;;;;;4.90;1.37;;;15.70;1.00;;;;;;5108928;27;20450;-73
2021/05/19 12:24:10;;;;;;;5.23;1.63;;;15.90;1.00;;;;;;5106783;27;20461;-74
2021/05/19 12:26:55;;;;;;;5.83;1.63;;;16.30;1.00;;;;;;5107772;27;20441;-73
2021/05/19 12:29:39;;;;;;;5.87;1.40;;;16.10;1.00;;;;;;5102118;27;20454;-73
2021/05/19 12:32:19;;;;;;;6.40;1.20;;;15.80;1.00;;;;;;5100387;27;20457;-74
2021/05/19 12:34:59;;;;;;;3.93;1.00;;;15.20;1.00;;;;;;5111403;27;20434;-73
2021/05/19 12:37:38;;;;;;;7.30;1.80;;;14.60;1.00;;;;;;5107197;27;20468;-73
2021/05/19 12:40:06;;;;;;;3.57;1.40;;;14.40;1.00;;;;;;5102842;27;20455;-73
2021/05/19 12:42:43;;;;;;;7.13;1.93;;;14.10;1.00;;;;;;5106752;27;21014;-73
2021/05/19 12:45:11;;;;;;;7.47;2.60;;;13.90;1.00;;;;;;5107163;27;20430;-73
2021/05/19 12:47:37;;;;;;;6.90;1.80;;;13.90;1.00;;;;;;5101625;27;20891;-72
2021/05/19 12:50:05;;;;;;;6.53;2.23;;;13.80;1.00;;;;;;5096224;27;22175;-72
2021/05/19 12:52:35;;;;;;;3.90;1.70;;;14.30;1.00;;;;;;5101348;27;20526;-73
2021/05/19 12:55:04;;;;;;;4.93;1.70;;;14.90;1.00;;;;;;5089683;27;20948;-73
2021/05/19 12:57:33;;;;;;;4.20;1.50;;;15.30;1.00;;;;;;5111326;27;20482;-73
2021/05/19 13:00:13;;;;;;;2.90;1.40;;;15.60;1.00;;;;;;5102100;27;21007;-74
2021/05/19 13:02:39;;;;;;;3.37;1.53;;;15.70;1.00;;;;;;5097677;27;20453;-72
2021/05/19 13:05:18;;;;;;;4.67;1.30;;;15.50;1.00;;;;;;5106608;27;20509;-72
2021/05/19 13:07:45;;;;;;;5.67;1.67;;;15.60;1.00;;;;;;5093004;27;20322;-72